Time;durP1;ratioP1;P1;durP2;ratioP2;P2;SDS_P1;SDS_P2;PMS_P1;PMS_P2;Temp;Humidity;BMP_temperature;BMP_pressure;BME280_temperature;BME280_humidity;BME280_pressure;Samples;Min_cycle;Max_cycle;Signal;HPM_P1;HPM_P2
2021/12/21 06:09:16;;;;;;;6.28;4.03;;;0.20;93.50;;;;;;2071041;28;20061;-89
2021/12/21 06:10:41;;;;;;;6.95;4.18;;;0.20;93.60;;;;;;2090273;28;20585;-90
2021/12/21 06:12:11;;;;;;;7.20;3.97;;;0.10;93.60;;;;;;2070599;28;20050;-89
2021/12/21 06:15:41;;;;;;;8.10;4.43;;;0.20;93.70;;;;;;2071874;28;20041;-90
2021/12/21 06:24:40;;;;;;;9.07;4.70;;;0.20;93.70;;;;;;2070536;28;20513;-91
2021/12/21 06:28:12;;;;;;;8.48;5.00;;;0.20;93.70;;;;;;2057114;28;20023;-90
2021/12/21 06:29:54;;;;;;;8.60;4.70;;;0.10;93.60;;;;;;2052837;28;20043;-89
2021/12/21 06:32:48;;;;;;;8.85;4.78;;;0.10;93.60;;;;;;2082662;28;20412;-91
2021/12/21 06:34:57;;;;;;;8.13;4.72;;;0.20;93.70;;;;;;2082470;28;20042;-91
2021/12/21 06:38:25;;;;;;;8.65;4.55;;;0.20;93.70;;;;;;2082409;28;20053;-89
2021/12/21 06:42:39;;;;;;;9.10;5.00;;;0.20;93.70;;;;;;2078077;28;20085;-90
2021/12/21 06:43:50;;;;;;;9.20;5.13;;;0.20;93.70;;;;;;2081714;28;20046;-90
2021/12/21 06:44:58;;;;;;;8.30;4.97;;;0.20;93.60;;;;;;2067003;28;20053;-89
2021/12/21 06:46:16;;;;;;;9.23;5.57;;;0.20;93.70;;;;;;2071032;28;20029;-89
2021/12/21 06:52:42;;;;;;;9.57;6.00;;;0.20;93.70;;;;;;2082547;28;20384;-89
2021/12/21 06:53:46;;;;;;;10.32;6.65;;;0.20;93.70;;;;;;2073081;28;20064;-89
2021/12/21 06:54:48;;;;;;;10.60;6.03;;;0.20;93.80;;;;;;2065585;28;20034;-89
2021/12/21 06:55:51;;;;;;;11.05;6.38;;;0.20;93.80;;;;;;2065637;28;20030;-88
2021/12/21 06:56:58;;;;;;;11.10;6.45;;;0.20;93.80;;;;;;2064789;28;20062;-89
2021/12/21 06:57:59;;;;;;;10.75;6.32;;;0.10;93.80;;;;;;2073250;28;20508;-89
2021/12/21 06:59:03;;;;;;;9.15;6.20;;;0.20;93.90;;;;;;2065152;28;20038;-89
2021/12/21 07:00:06;;;;;;;8.98;5.78;;;0.10;93.90;;;;;;2078354;28;20038;-89
2021/12/21 07:01:09;;;;;;;12.10;6.50;;;0.10;93.90;;;;;;2078006;28;20044;-89
2021/12/21 07:02:10;;;;;;;9.82;6.40;;;0.10;93.90;;;;;;2071307;28;20164;-89
2021/12/21 07:03:32;;;;;;;11.57;6.72;;;0.20;93.90;;;;;;2069515;28;20513;-89
2021/12/21 07:04:38;;;;;;;12.65;6.57;;;0.20;94.20;;;;;;2081258;28;20038;-89
2021/12/21 07:05:40;;;;;;;10.63;6.38;;;0.20;93.90;;;;;;2074184;28;20045;-89
2021/12/21 07:06:42;;;;;;;11.05;6.68;;;0.20;93.90;;;;;;2089799;28;20116;-89
2021/12/21 07:07:52;;;;;;;10.35;6.10;;;0.10;93.90;;;;;;2089596;28;20048;-88
2021/12/21 07:10:00;;;;;;;11.15;6.63;;;0.10;93.90;;;;;;2083774;28;20131;-88
2021/12/21 07:21:35;;;;;;;11.10;6.68;;;0.20;93.90;;;;;;2085645;28;20053;-87
2021/12/21 07:22:36;;;;;;;12.48;6.63;;;0.10;93.90;;;;;;2074770;28;20096;-87
2021/12/21 07:23:37;;;;;;;11.10;6.68;;;0.10;93.90;;;;;;2057938;28;20066;-88
2021/12/21 07:24:38;;;;;;;11.48;6.80;;;0.20;93.90;;;;;;2067072;28;20034;-88
2021/12/21 07:25:39;;;;;;;11.27;6.88;;;0.10;93.90;;;;;;2069294;28;20449;-88
2021/12/21 07:26:41;;;;;;;10.35;6.60;;;0.20;94.00;;;;;;2069308;28;20088;-88
2021/12/21 07:27:44;;;;;;;12.00;7.15;;;0.20;94.00;;;;;;2070872;28;20436;-88
2021/12/21 07:28:45;;;;;;;11.45;6.75;;;0.20;94.00;;;;;;2064180;28;20045;-88
2021/12/21 07:33:06;;;;;;;13.95;7.35;;;0.20;94.00;;;;;;2069956;28;20023;-88
2021/12/21 07:35:01;;;;;;;13.02;6.57;;;0.20;93.90;;;;;;2078003;28;20025;-88
2021/12/21 07:38:45;;;;;;;12.77;7.97;;;0.20;93.80;;;;;;2086576;28;20099;-88
2021/12/21 07:39:47;;;;;;;16.13;8.48;;;0.10;93.80;;;;;;2070584;28;20029;-88
2021/12/21 07:41:03;;;;;;;12.57;7.68;;;0.10;93.80;;;;;;2057765;28;20039;-88
2021/12/21 07:42:05;;;;;;;13.27;7.70;;;0.10;93.80;;;;;;2062008;28;20536;-87
2021/12/21 07:43:28;;;;;;;13.25;7.15;;;0.10;93.80;;;;;;2064682;28;20046;-88
2021/12/21 07:50:22;;;;;;;11.55;6.57;;;0.00;93.80;;;;;;2085798;28;20036;-89
2021/12/21 07:52:11;;;;;;;11.25;6.43;;;0.10;93.80;;;;;;2081703;28;20092;-89
2021/12/21 07:54:31;;;;;;;11.05;6.38;;;0.10;93.80;;;;;;2059089;28;20066;-89
2021/12/21 08:26:53;;;;;;;10.20;5.10;;;0.30;93.50;;;;;;2089211;28;21019;-88
2021/12/21 08:28:17;;;;;;;10.68;6.10;;;0.40;93.40;;;;;;2080484;28;20057;-87
2021/12/21 08:29:19;;;;;;;9.57;5.80;;;0.50;93.40;;;;;;2068806;28;20589;-88
2021/12/21 08:32:02;;;;;;;10.35;5.95;;;0.50;93.40;;;;;;2084932;28;20127;-88
2021/12/21 08:33:04;;;;;;;11.75;6.82;;;0.50;93.40;;;;;;2070900;28;20143;-88
2021/12/21 08:34:05;;;;;;;10.52;6.40;;;0.60;93.40;;;;;;2069002;28;20081;-88
2021/12/21 08:35:06;;;;;;;11.35;7.10;;;0.60;93.40;;;;;;2084787;28;20104;-88
2021/12/21 08:36:08;;;;;;;13.63;7.68;;;0.60;93.50;;;;;;2079141;28;20076;-88
2021/12/21 08:37:09;;;;;;;13.68;7.80;;;0.70;93.50;;;;;;2068780;28;20034;-88
2021/12/21 08:38:14;;;;;;;12.10;7.40;;;0.70;93.50;;;;;;2084056;28;20122;-88
2021/12/21 08:39:16;;;;;;;11.10;6.75;;;0.70;93.80;;;;;;2091112;28;20048;-88
2021/12/21 08:40:22;;;;;;;14.10;8.07;;;0.70;93.50;;;;;;2068927;28;20034;-88
2021/12/21 08:41:24;;;;;;;14.23;8.25;;;0.70;93.50;;;;;;2062581;28;20031;-89
2021/12/21 08:42:26;;;;;;;13.90;7.72;;;0.80;93.50;;;;;;2081961;28;20041;-91
2021/12/21 08:43:29;;;;;;;14.80;8.77;;;0.80;93.50;;;;;;2092633;28;20606;-91
2021/12/21 08:44:30;;;;;;;15.65;9.05;;;0.80;93.40;;;;;;2079327;28;20030;-92
2021/12/21 08:45:33;;;;;;;16.92;9.65;;;0.90;93.40;;;;;;2077160;28;20062;-91
2021/12/21 08:46:33;;;;;;;15.15;9.05;;;0.90;93.40;;;;;;2067786;28;20165;-90
2021/12/21 08:47:38;;;;;;;15.80;8.90;;;0.90;93.40;;;;;;2077360;28;20483;-88
2021/12/21 08:48:39;;;;;;;14.25;9.18;;;1.00;93.40;;;;;;2073965;28;20030;-88
2021/12/21 08:49:39;;;;;;;15.80;8.80;;;1.00;93.40;;;;;;2080835;28;20056;-88
2021/12/21 08:50:41;;;;;;;15.52;9.48;;;1.00;93.40;;;;;;2074906;28;20042;-88
2021/12/21 08:51:41;;;;;;;15.32;9.45;;;1.00;93.30;;;;;;2056274;28;20058;-87
2021/12/21 08:52:42;;;;;;;13.88;8.60;;;1.10;93.30;;;;;;2069707;28;20101;-88
2021/12/21 08:53:43;;;;;;;14.55;9.73;;;1.10;93.30;;;;;;2074484;28;20094;-88
2021/12/21 08:54:44;;;;;;;15.35;9.60;;;1.10;93.30;;;;;;2073508;28;20396;-88
2021/12/21 08:55:45;;;;;;;17.38;9.70;;;1.10;93.20;;;;;;2066868;28;20034;-87
2021/12/21 08:56:48;;;;;;;14.75;8.93;;;1.10;93.20;;;;;;2070216;28;20042;-88
2021/12/21 08:57:49;;;;;;;16.15;9.13;;;1.20;93.20;;;;;;2067140;28;20637;-88
2021/12/21 08:58:50;;;;;;;14.90;9.65;;;1.20;93.40;;;;;;2065104;28;20066;-89
2021/12/21 08:59:50;;;;;;;16.75;10.35;;;1.20;93.10;;;;;;2067732;28;20039;-88
2021/12/21 09:00:52;;;;;;;16.65;9.80;;;1.20;93.10;;;;;;2079947;28;20096;-88
2021/12/21 09:01:54;;;;;;;14.68;9.52;;;1.20;93.10;;;;;;2077289;28;20049;-89
2021/12/21 09:02:54;;;;;;;14.32;9.13;;;1.30;93.10;;;;;;2064831;28;20066;-88
2021/12/21 09:03:56;;;;;;;15.77;9.32;;;1.30;93.10;;;;;;2076851;28;20087;-88
2021/12/21 09:04:57;;;;;;;15.50;9.30;;;1.30;93.00;;;;;;2065751;28;20034;-88
2021/12/21 09:05:58;;;;;;;14.88;9.30;;;1.30;93.00;;;;;;2077151;28;20240;-89
2021/12/21 09:06:59;;;;;;;16.30;9.13;;;1.40;93.00;;;;;;2068279;28;20083;-88
2021/12/21 09:08:01;;;;;;;14.45;9.02;;;1.40;93.30;;;;;;2065692;28;20050;-89
2021/12/21 09:09:03;;;;;;;14.48;9.02;;;1.40;93.00;;;;;;2061222;28;20039;-90
2021/12/21 09:10:05;;;;;;;13.45;9.00;;;1.40;93.00;;;;;;2078603;28;20108;-92
2021/12/21 09:11:06;;;;;;;14.95;9.40;;;1.50;93.00;;;;;;2079499;28;20045;-91
2021/12/21 09:25:15;;;;;;;12.85;7.88;;;1.60;92.60;;;;;;2088948;28;20043;-89
2021/12/21 09:26:20;;;;;;;14.43;8.73;;;1.60;92.60;;;;;;2074481;28;20068;-89
2021/12/21 09:28:15;;;;;;;14.43;7.95;;;1.70;92.70;;;;;;2074781;28;20092;-89
2021/12/21 09:29:46;;;;;;;12.73;7.05;;;1.70;92.70;;;;;;2083745;28;20031;-89
2021/12/21 09:31:21;;;;;;;13.75;7.72;;;1.80;92.70;;;;;;2075792;28;20088;-89
2021/12/21 10:16:20;;;;;;;12.95;7.63;;;2.20;92.00;;;;;;2085397;28;20056;-86
2021/12/21 10:17:23;;;;;;;11.30;7.13;;;2.20;92.00;;;;;;2065627;28;20065;-86
2021/12/21 10:18:34;;;;;;;12.55;7.22;;;2.20;92.00;;;;;;2076957;28;20491;-88
2021/12/21 10:19:37;;;;;;;12.32;8.32;;;2.20;92.00;;;;;;2069083;28;20026;-88
2021/12/21 10:20:46;;;;;;;11.93;8.18;;;2.20;92.00;;;;;;2079762;28;20037;-86
2021/12/21 10:21:47;;;;;;;12.52;8.60;;;2.20;92.10;;;;;;2076045;28;20045;-89
2021/12/21 10:22:51;;;;;;;12.77;8.07;;;2.30;92.10;;;;;;2071926;28;20046;-88
2021/12/21 10:23:54;;;;;;;13.02;8.68;;;2.30;92.10;;;;;;2065291;28;20142;-89
2021/12/21 10:24:55;;;;;;;12.57;8.20;;;2.30;92.10;;;;;;2062840;28;20035;-88
2021/12/21 10:25:59;;;;;;;14.13;9.32;;;2.30;92.10;;;;;;2070913;28;20042;-88
2021/12/21 10:27:10;;;;;;;14.20;8.88;;;2.30;92.20;;;;;;2084687;28;20045;-88
2021/12/21 10:28:11;;;;;;;13.30;9.45;;;2.40;92.20;;;;;;2085459;28;20033;-87
2021/12/21 10:29:15;;;;;;;13.23;8.57;;;2.40;92.20;;;;;;2080018;28;20038;-88
2021/12/21 10:30:16;;;;;;;15.18;10.25;;;2.40;92.20;;;;;;2063817;28;20397;-88
2021/12/21 10:31:26;;;;;;;14.30;9.68;;;2.40;92.10;;;;;;2063412;28;20045;-88
2021/12/21 10:32:32;;;;;;;13.98;9.48;;;2.40;92.10;;;;;;2072184;28;20034;-92
2021/12/21 10:33:33;;;;;;;13.82;9.48;;;2.40;92.10;;;;;;2072853;28;20053;-91
2021/12/21 10:34:34;;;;;;;13.30;9.35;;;2.40;92.10;;;;;;2071910;28;20034;-88
2021/12/21 10:35:34;;;;;;;15.10;9.95;;;2.40;92.20;;;;;;2076842;28;20411;-88
2021/12/21 10:36:46;;;;;;;14.13;9.57;;;2.40;92.20;;;;;;2063545;28;20126;-88
2021/12/21 10:37:51;;;;;;;13.90;9.45;;;2.40;92.20;;;;;;2049564;28;20038;-88
2021/12/21 10:38:56;;;;;;;14.55;9.95;;;2.40;92.20;;;;;;2071802;28;20034;-87
2021/12/21 10:40:11;;;;;;;14.65;9.80;;;2.40;92.20;;;;;;2073072;28;20081;-88
2021/12/21 10:41:52;;;;;;;14.73;10.20;;;2.40;92.40;;;;;;2066493;28;20030;-88
2021/12/21 10:43:03;;;;;;;17.65;10.82;;;2.40;92.10;;;;;;2065095;28;20038;-88
2021/12/21 10:44:26;;;;;;;19.05;11.55;;;2.50;92.10;;;;;;2074792;28;20033;-88
2021/12/21 10:45:50;;;;;;;15.45;10.02;;;2.50;92.00;;;;;;2076123;28;20038;-87
2021/12/21 10:46:54;;;;;;;15.95;11.00;;;2.50;91.80;;;;;;2063349;28;20518;-87
2021/12/21 10:47:57;;;;;;;18.73;11.90;;;2.60;91.80;;;;;;2075462;28;20097;-87
2021/12/21 10:49:21;;;;;;;17.17;11.20;;;2.60;91.70;;;;;;2073295;28;20045;-88
2021/12/21 10:50:23;;;;;;;19.65;12.77;;;2.50;91.70;;;;;;2069137;28;20048;-87
2021/12/21 10:51:27;;;;;;;18.85;11.65;;;2.50;91.80;;;;;;2072501;28;20045;-87
2021/12/21 10:52:28;;;;;;;18.25;12.55;;;2.50;91.80;;;;;;2065307;28;20038;-87
2021/12/21 10:53:31;;;;;;;18.95;12.80;;;2.50;91.80;;;;;;2063888;28;20053;-87
2021/12/21 10:54:45;;;;;;;18.67;12.27;;;2.50;91.90;;;;;;2066917;28;20495;-87
2021/12/21 10:56:30;;;;;;;17.02;11.70;;;2.50;91.90;;;;;;2079626;28;20041;-88
2021/12/21 10:59:06;;;;;;;16.00;10.40;;;2.50;92.00;;;;;;2048895;28;20032;-91
2021/12/21 11:37:31;;;;;;;12.07;7.57;;;3.10;91.80;;;;;;2087628;28;20250;-90
2021/12/21 11:42:47;;;;;;;10.40;6.40;;;3.60;92.50;;;;;;2053745;28;20031;-90
2021/12/21 12:35:54;;;;;;;6.10;3.78;;;7.80;92.80;;;;;;2081738;28;20049;-93
2021/12/21 12:38:16;;;;;;;6.78;4.00;;;7.50;92.70;;;;;;2077897;28;20033;-90
2021/12/21 12:40:02;;;;;;;7.45;4.20;;;7.20;92.80;;;;;;2079941;28;20033;-89
2021/12/21 12:41:26;;;;;;;7.28;4.45;;;7.00;92.80;;;;;;2082455;28;20033;-90
2021/12/21 12:43:11;;;;;;;8.38;5.03;;;6.80;92.80;;;;;;2067635;28;20053;-89
2021/12/21 12:44:22;;;;;;;7.22;4.75;;;6.50;92.70;;;;;;2059240;28;20042;-89
2021/12/21 12:45:52;;;;;;;8.27;4.88;;;6.40;92.50;;;;;;2058045;28;20158;-88
2021/12/21 12:47:25;;;;;;;8.38;5.40;;;6.20;92.50;;;;;;2073672;28;20046;-87
2021/12/21 12:49:10;;;;;;;8.25;5.30;;;6.00;92.40;;;;;;2088217;28;20040;-88
2021/12/21 12:50:24;;;;;;;9.18;6.05;;;5.80;92.30;;;;;;2069770;28;20084;-87
2021/12/21 12:51:47;;;;;;;9.05;6.05;;;5.70;92.20;;;;;;2070569;28;20057;-88
2021/12/21 12:53:08;;;;;;;8.38;5.88;;;5.50;92.20;;;;;;2075852;28;20034;-87
2021/12/21 12:54:18;;;;;;;9.55;6.20;;;5.40;92.20;;;;;;2086057;28;20060;-87
2021/12/21 12:55:25;;;;;;;8.82;6.30;;;5.30;92.00;;;;;;2070718;28;20072;-88
2021/12/21 12:56:40;;;;;;;9.85;6.68;;;5.20;91.90;;;;;;2076146;28;20073;-88
2021/12/21 12:57:59;;;;;;;9.63;6.40;;;5.10;91.80;;;;;;2071745;28;20504;-88
2021/12/21 12:59:04;;;;;;;9.90;6.43;;;5.10;91.70;;;;;;2065765;28;20035;-88
2021/12/21 13:00:25;;;;;;;13.50;7.10;;;4.90;91.50;;;;;;2080228;28;20172;-88
2021/12/21 13:01:31;;;;;;;10.27;6.75;;;4.80;91.40;;;;;;2079518;28;20090;-88
2021/12/21 13:03:15;;;;;;;10.43;6.65;;;4.80;91.30;;;;;;2081433;28;20046;-89
2021/12/21 13:05:05;;;;;;;9.90;6.35;;;4.70;91.30;;;;;;2076516;28;20034;-88
2021/12/21 13:06:46;;;;;;;11.23;6.63;;;4.60;91.30;;;;;;2085084;28;20112;-88
2021/12/21 13:08:23;;;;;;;10.02;6.18;;;4.50;91.20;;;;;;2075988;28;20128;-88
2021/12/21 13:09:50;;;;;;;9.68;6.30;;;4.50;91.10;;;;;;2063121;28;20039;-88
2021/12/21 13:11:26;;;;;;;10.82;6.38;;;4.40;91.00;;;;;;2079410;28;20042;-88
2021/12/21 13:12:32;;;;;;;10.85;6.28;;;4.40;90.90;;;;;;2078005;28;20092;-87
2021/12/21 13:13:43;;;;;;;11.43;6.75;;;4.40;90.90;;;;;;2072608;28;20034;-88
2021/12/21 13:18:03;;;;;;;12.43;6.95;;;4.30;90.80;;;;;;2087174;28;20055;-89
2021/12/21 13:19:31;;;;;;;10.48;5.93;;;4.30;90.80;;;;;;2069083;28;20034;-88
2021/12/21 13:20:36;;;;;;;9.82;6.35;;;4.20;90.70;;;;;;2069430;28;20042;-88
2021/12/21 13:21:57;;;;;;;10.98;6.47;;;4.20;90.60;;;;;;2073450;28;20034;-88
2021/12/21 13:23:15;;;;;;;10.65;6.55;;;4.20;90.60;;;;;;2083136;28;20041;-88
2021/12/21 13:24:21;;;;;;;10.20;6.10;;;4.20;90.60;;;;;;2074740;28;20065;-87
2021/12/21 13:25:22;;;;;;;12.05;6.65;;;4.10;90.60;;;;;;2082189;28;20036;-87
2021/12/21 13:26:48;;;;;;;8.93;6.13;;;4.10;90.60;;;;;;2081540;28;20073;-87
2021/12/21 13:27:48;;;;;;;12.23;6.20;;;4.10;90.60;;;;;;2086419;28;20094;-88
2021/12/21 13:28:55;;;;;;;11.38;6.95;;;4.10;90.60;;;;;;2077863;28;20068;-88
2021/12/21 13:29:57;;;;;;;10.48;6.90;;;4.10;90.60;;;;;;2072171;28;20048;-88
2021/12/21 13:30:59;;;;;;;11.43;6.80;;;4.00;90.60;;;;;;2061783;28;20090;-89
2021/12/21 13:32:04;;;;;;;12.23;7.32;;;4.00;90.60;;;;;;2068477;28;20041;-87
2021/12/21 13:33:05;;;;;;;14.60;7.90;;;4.00;90.60;;;;;;2074181;28;20025;-87
2021/12/21 13:34:07;;;;;;;11.38;7.30;;;4.00;90.60;;;;;;2081361;28;20040;-87
2021/12/21 13:35:07;;;;;;;13.20;7.72;;;4.00;90.50;;;;;;2082178;28;20025;-89
2021/12/21 13:36:09;;;;;;;13.27;7.75;;;4.00;90.50;;;;;;2055172;28;20051;-88
2021/12/21 13:37:13;;;;;;;12.18;7.80;;;4.00;90.50;;;;;;2051622;28;20039;-88
2021/12/21 13:38:18;;;;;;;14.23;7.80;;;4.00;90.50;;;;;;2073773;28;20117;-87
2021/12/21 13:39:21;;;;;;;12.95;7.85;;;3.90;90.40;;;;;;2075204;28;20038;-88
2021/12/21 13:40:23;;;;;;;12.32;7.78;;;3.90;90.40;;;;;;2080499;28;20472;-88
2021/12/21 13:41:24;;;;;;;15.27;8.15;;;3.90;90.40;;;;;;2074349;28;20026;-88
2021/12/21 13:42:30;;;;;;;14.15;7.88;;;3.90;90.30;;;;;;2071954;28;20484;-89
2021/12/21 13:43:32;;;;;;;13.27;8.27;;;3.90;90.30;;;;;;2081165;28;20044;-89
2021/12/21 13:44:39;;;;;;;13.40;8.25;;;3.90;90.30;;;;;;2073305;28;20061;-88
2021/12/21 13:45:42;;;;;;;16.83;9.30;;;3.90;90.30;;;;;;2063651;28;20082;-89
2021/12/21 13:46:43;;;;;;;15.65;9.52;;;3.90;90.20;;;;;;2075838;28;20052;-89
2021/12/21 13:47:50;;;;;;;14.15;8.93;;;3.80;90.10;;;;;;2057661;28;20043;-89
2021/12/21 13:48:53;;;;;;;15.88;9.25;;;3.80;90.10;;;;;;2062154;28;20073;-90
2021/12/21 13:50:12;;;;;;;14.43;8.38;;;3.80;90.10;;;;;;2080141;28;20030;-90
2021/12/21 13:51:15;;;;;;;16.02;8.98;;;3.80;90.20;;;;;;2082173;28;20061;-89
2021/12/21 13:52:19;;;;;;;15.48;8.75;;;3.80;90.20;;;;;;2074144;28;20037;-88
2021/12/21 13:53:20;;;;;;;13.80;8.50;;;3.80;90.10;;;;;;2067795;28;20042;-88
2021/12/21 13:54:22;;;;;;;14.77;8.40;;;3.80;90.10;;;;;;2082504;28;20160;-88
2021/12/21 13:55:29;;;;;;;12.25;7.88;;;3.80;90.10;;;;;;2081521;28;20515;-88
2021/12/21 13:56:31;;;;;;;12.45;7.90;;;3.80;90.10;;;;;;2072041;28;20034;-89
2021/12/21 13:57:33;;;;;;;12.20;7.65;;;3.80;90.10;;;;;;2071975;28;20045;-89
2021/12/21 13:58:35;;;;;;;12.45;7.85;;;3.80;90.10;;;;;;2080911;28;20511;-89
2021/12/21 13:59:37;;;;;;;11.57;7.10;;;3.80;90.10;;;;;;2064761;28;20132;-88
2021/12/21 14:00:46;;;;;;;13.15;7.68;;;3.80;90.10;;;;;;2066099;28;20038;-89
2021/12/21 14:01:52;;;;;;;13.02;7.03;;;3.80;90.10;;;;;;2079014;28;20038;-89
2021/12/21 14:03:03;;;;;;;10.38;6.35;;;3.80;90.10;;;;;;2074819;28;20052;-89
2021/12/21 14:04:10;;;;;;;12.20;7.03;;;3.80;90.10;;;;;;2060547;28;20452;-89
2021/12/21 14:05:17;;;;;;;9.73;5.95;;;3.80;90.10;;;;;;2072782;28;20153;-89
2021/12/21 14:06:22;;;;;;;9.45;5.65;;;3.80;90.10;;;;;;2074598;28;20041;-89
2021/12/21 14:07:22;;;;;;;8.98;5.38;;;3.80;90.10;;;;;;2068463;28;20030;-88
2021/12/21 14:08:23;;;;;;;10.60;5.93;;;3.80;90.10;;;;;;2068670;28;20353;-88
2021/12/21 14:09:24;;;;;;;8.30;5.00;;;3.80;90.10;;;;;;2069941;28;20053;-88
2021/12/21 14:10:25;;;;;;;9.10;5.60;;;3.80;90.10;;;;;;2076028;28;20054;-89
2021/12/21 14:11:37;;;;;;;11.18;5.65;;;3.70;90.10;;;;;;2062315;28;20038;-89
2021/12/21 14:12:39;;;;;;;7.45;4.93;;;3.70;90.10;;;;;;2061081;28;20038;-90
2021/12/21 14:13:42;;;;;;;8.23;4.68;;;3.70;90.10;;;;;;2081082;28;20133;-90
2021/12/21 14:14:43;;;;;;;7.82;4.72;;;3.70;90.10;;;;;;2088715;28;20249;-89
2021/12/21 14:15:46;;;;;;;7.00;4.30;;;3.70;90.10;;;;;;2087418;28;20103;-90
2021/12/21 14:16:50;;;;;;;7.20;4.07;;;3.70;90.00;;;;;;2079485;28;20116;-90
2021/12/21 14:17:51;;;;;;;6.97;4.25;;;3.70;90.00;;;;;;2080223;28;20101;-87
2021/12/21 14:18:54;;;;;;;6.13;3.72;;;3.70;90.00;;;;;;2063908;28;20510;-88
2021/12/21 14:19:56;;;;;;;7.07;3.83;;;3.70;90.00;;;;;;2074215;28;20435;-87
2021/12/21 14:21:03;;;;;;;7.68;4.30;;;3.70;90.00;;;;;;2079643;28;20038;-89
2021/12/21 14:22:14;;;;;;;7.63;4.07;;;3.70;90.00;;;;;;2072140;28;20045;-88
2021/12/21 14:23:30;;;;;;;7.13;4.05;;;3.70;90.00;;;;;;2081042;28;20029;-88
2021/12/21 14:25:20;;;;;;;5.97;3.50;;;3.60;89.90;;;;;;2079844;28;20091;-89
2021/12/21 14:26:42;;;;;;;6.43;3.85;;;3.60;90.00;;;;;;2074930;28;20096;-88
2021/12/21 14:27:49;;;;;;;7.13;4.05;;;3.60;89.90;;;;;;2071885;28;20069;-88
2021/12/21 14:29:32;;;;;;;7.05;4.18;;;3.60;89.90;;;;;;2066701;28;20525;-89
2021/12/21 14:33:29;;;;;;;6.72;3.88;;;3.60;90.00;;;;;;2083353;28;20041;-89
2021/12/21 14:34:55;;;;;;;7.63;4.28;;;3.50;90.00;;;;;;2081069;28;20111;-88
2021/12/21 14:36:00;;;;;;;6.68;4.00;;;3.50;90.00;;;;;;2073876;28;20084;-87
2021/12/21 14:37:24;;;;;;;7.13;4.22;;;3.50;90.00;;;;;;2079121;28;20041;-92
2021/12/21 14:39:36;;;;;;;7.30;4.50;;;3.40;90.00;;;;;;2059100;28;20100;-92
2021/12/21 14:40:44;;;;;;;7.25;3.90;;;3.40;90.10;;;;;;2073262;28;20511;-88
2021/12/21 14:41:56;;;;;;;8.90;4.53;;;3.40;90.10;;;;;;2070539;28;20058;-88
2021/12/21 14:42:57;;;;;;;7.25;4.40;;;3.40;90.10;;;;;;2064828;28;20034;-88
2021/12/21 14:44:08;;;;;;;7.93;4.50;;;3.30;90.10;;;;;;2063100;28;20030;-88
2021/12/21 14:45:09;;;;;;;;;;;3.40;90.10;;;;;;2075773;28;20400;-88
2021/12/21 14:46:19;;;;;;;7.15;4.32;;;3.30;90.20;;;;;;2082181;28;19917;-88
2021/12/21 14:47:27;;;;;;;7.82;4.47;;;3.30;90.20;;;;;;2083164;28;20032;-88
2021/12/21 14:48:32;;;;;;;6.32;3.75;;;3.30;90.20;;;;;;2072249;28;20030;-88
2021/12/21 14:49:51;;;;;;;6.68;4.00;;;3.30;90.20;;;;;;2066869;28;20034;-88
2021/12/21 14:51:11;;;;;;;7.07;4.20;;;3.30;90.30;;;;;;2066057;28;20039;-88
2021/12/21 14:52:50;;;;;;;7.57;4.30;;;3.20;90.30;;;;;;2064552;28;20463;-89
2021/12/21 14:54:07;;;;;;;8.48;4.22;;;3.20;90.30;;;;;;2051009;28;20078;-89
2021/12/21 14:55:12;;;;;;;7.25;4.38;;;3.20;90.30;;;;;;2061148;28;20531;-89
2021/12/21 14:56:37;;;;;;;8.57;4.85;;;3.20;90.40;;;;;;2073855;28;20052;-89
2021/12/21 14:57:44;;;;;;;6.80;3.78;;;3.20;90.40;;;;;;2075331;28;20162;-88
2021/12/21 14:58:56;;;;;;;6.60;4.20;;;3.20;90.40;;;;;;2064377;28;20134;-88
2021/12/21 15:00:44;;;;;;;8.20;4.60;;;3.20;90.50;;;;;;2068922;28;20590;-89
2021/12/21 15:03:41;;;;;;;7.13;4.22;;;3.10;90.50;;;;;;2073947;28;20041;-87
2021/12/21 15:05:00;;;;;;;8.35;4.95;;;3.10;90.50;;;;;;2061219;28;20049;-89
2021/12/21 15:06:32;;;;;;;7.10;4.45;;;3.00;90.50;;;;;;2082994;28;20037;-88
2021/12/21 15:07:36;;;;;;;7.38;4.55;;;3.00;90.60;;;;;;2062403;28;20051;-89
2021/12/21 15:08:43;;;;;;;7.47;4.35;;;3.00;90.60;;;;;;2054978;28;20146;-88
2021/12/21 15:09:44;;;;;;;7.30;4.53;;;3.00;90.60;;;;;;2069263;28;20086;-88
2021/12/21 15:11:26;;;;;;;8.82;5.40;;;3.00;90.70;;;;;;2073491;28;20112;-89
2021/12/21 15:12:29;;;;;;;8.30;5.30;;;3.00;90.70;;;;;;2061813;28;20034;-89
2021/12/21 15:13:34;;;;;;;8.13;4.85;;;3.00;90.70;;;;;;2057615;28;20050;-89
2021/12/21 15:14:36;;;;;;;8.43;5.28;;;2.90;90.70;;;;;;2066876;28;20404;-88
2021/12/21 15:15:38;;;;;;;8.23;5.38;;;2.90;90.80;;;;;;2057825;28;20034;-88
2021/12/21 15:16:39;;;;;;;8.32;5.60;;;3.00;90.80;;;;;;2051037;28;20039;-89
2021/12/21 15:18:09;;;;;;;8.88;5.75;;;2.90;90.80;;;;;;2062377;28;20026;-89
2021/12/21 15:19:21;;;;;;;9.90;5.20;;;2.90;90.90;;;;;;2062142;28;20034;-89
2021/12/21 15:20:27;;;;;;;8.88;5.80;;;2.90;90.90;;;;;;2057022;28;20026;-88
2021/12/21 15:21:31;;;;;;;9.45;5.70;;;2.90;91.20;;;;;;2064118;28;20333;-87
2021/12/21 15:22:38;;;;;;;8.77;5.63;;;2.90;90.90;;;;;;2060010;28;20126;-88
2021/12/21 15:23:38;;;;;;;9.90;5.75;;;2.90;91.00;;;;;;2062910;28;20062;-89
2021/12/21 15:24:41;;;;;;;10.10;5.82;;;2.90;91.00;;;;;;2056513;28;20134;-88
2021/12/21 15:26:06;;;;;;;10.10;6.13;;;2.80;91.00;;;;;;2062954;28;20058;-88
2021/12/21 15:27:08;;;;;;;9.63;5.50;;;2.80;91.00;;;;;;2073258;28;20038;-88
2021/12/21 15:28:08;;;;;;;8.85;5.80;;;2.80;91.10;;;;;;2059384;28;20508;-88
2021/12/21 15:29:09;;;;;;;9.93;6.55;;;2.80;91.10;;;;;;2056171;28;20073;-88
2021/12/21 15:30:23;;;;;;;10.85;6.38;;;2.80;91.10;;;;;;2063771;28;20068;-89
2021/12/21 15:31:51;;;;;;;11.23;6.50;;;2.80;91.10;;;;;;2064800;28;20065;-88
2021/12/21 15:33:20;;;;;;;11.55;7.07;;;2.80;91.10;;;;;;2070054;28;20029;-89
2021/12/21 15:34:25;;;;;;;10.98;6.72;;;2.70;91.10;;;;;;2068884;28;20057;-89
2021/12/21 15:35:48;;;;;;;11.38;6.95;;;2.80;91.20;;;;;;2064786;28;20047;-87
2021/12/21 15:36:56;;;;;;;10.65;6.43;;;2.70;91.10;;;;;;2068647;28;20045;-88
2021/12/21 15:38:08;;;;;;;12.50;7.43;;;2.70;91.20;;;;;;2072645;28;20462;-89
2021/12/21 15:39:10;;;;;;;;;;;2.70;91.20;;;;;;2073225;28;20056;-88
2021/12/21 15:40:53;;;;;;;9.43;5.90;;;2.70;91.20;;;;;;2078076;28;19939;-91
2021/12/21 15:42:13;;;;;;;10.30;6.75;;;2.70;91.20;;;;;;2061180;28;20196;-92
2021/12/21 15:43:41;;;;;;;11.40;6.47;;;2.60;91.10;;;;;;2075614;28;20033;-91
2021/12/21 15:44:45;;;;;;;11.55;6.72;;;2.60;91.10;;;;;;2055082;28;20053;-91
2021/12/21 15:45:57;;;;;;;9.63;6.50;;;2.60;91.20;;;;;;2062245;28;20397;-90
2021/12/21 15:46:59;;;;;;;10.90;6.70;;;2.60;91.20;;;;;;2064984;28;20046;-90
2021/12/21 15:49:02;;;;;;;10.02;6.95;;;2.60;91.20;;;;;;2064267;28;20043;-91
2021/12/21 15:50:33;;;;;;;10.10;5.72;;;2.60;91.30;;;;;;2079629;28;20079;-91
2021/12/21 15:51:34;;;;;;;10.38;6.55;;;2.50;91.30;;;;;;2067107;28;20042;-90
2021/12/21 15:52:39;;;;;;;9.70;6.07;;;2.50;91.30;;;;;;2064452;28;20049;-90
2021/12/21 15:53:56;;;;;;;11.48;7.18;;;2.50;91.30;;;;;;2078111;28;20041;-91
2021/12/21 15:55:18;;;;;;;10.45;6.22;;;2.50;91.40;;;;;;2070594;28;20043;-92
2021/12/21 15:56:43;;;;;;;11.07;7.47;;;2.50;91.40;;;;;;2078521;28;20048;-92
2021/12/21 15:57:45;;;;;;;10.35;6.57;;;2.40;91.40;;;;;;2061468;28;20054;-92
2021/12/21 15:58:50;;;;;;;11.38;6.75;;;2.40;91.40;;;;;;2051940;28;20039;-92
2021/12/21 15:59:51;;;;;;;11.63;6.88;;;2.40;91.40;;;;;;2065395;28;20492;-91
2021/12/21 16:00:58;;;;;;;11.20;7.05;;;2.40;91.50;;;;;;2080426;28;20029;-92
2021/12/21 16:02:02;;;;;;;12.75;7.47;;;2.40;91.50;;;;;;2065645;28;20077;-91
2021/12/21 16:03:03;;;;;;;11.60;7.32;;;2.40;91.50;;;;;;2063720;28;20042;-87
2021/12/21 16:04:04;;;;;;;10.30;7.28;;;2.40;91.50;;;;;;2070134;28;20052;-88
2021/12/21 16:05:06;;;;;;;10.77;7.28;;;2.40;91.50;;;;;;2061134;28;20050;-87
2021/12/21 16:06:08;;;;;;;11.48;7.28;;;2.40;91.50;;;;;;2047573;28;20242;-87
2021/12/21 16:07:09;;;;;;;11.85;7.75;;;2.40;91.60;;;;;;2048673;28;20067;-87
2021/12/21 16:08:11;;;;;;;11.65;7.43;;;2.40;91.60;;;;;;2066940;28;20030;-86
2021/12/21 16:09:13;;;;;;;12.25;7.30;;;2.40;91.60;;;;;;2055962;28;20102;-87
2021/12/21 16:10:16;;;;;;;12.93;7.63;;;2.40;91.60;;;;;;2061777;28;20459;-87
2021/12/21 16:11:17;;;;;;;13.38;7.63;;;2.40;91.70;;;;;;2048811;29;20044;-87
2021/12/21 16:12:18;;;;;;;11.75;7.80;;;2.40;91.70;;;;;;2052347;28;20577;-87
2021/12/21 16:13:18;;;;;;;13.50;7.70;;;2.30;91.60;;;;;;2048680;29;20055;-87
2021/12/21 16:14:19;;;;;;;13.15;7.78;;;2.30;91.60;;;;;;2048763;28;20027;-87
2021/12/21 16:15:26;;;;;;;12.48;7.72;;;2.30;91.70;;;;;;2056392;28;20134;-87
2021/12/21 16:16:27;;;;;;;12.38;7.55;;;2.30;91.70;;;;;;2056159;28;20034;-86
2021/12/21 16:17:50;;;;;;;11.95;7.05;;;2.30;91.70;;;;;;2050771;28;20063;-87
2021/12/21 16:18:53;;;;;;;12.15;7.32;;;2.30;91.70;;;;;;2059307;28;20554;-87
2021/12/21 16:19:55;;;;;;;13.10;7.53;;;2.20;91.70;;;;;;2048809;28;20039;-87